Terminal Aerodrome Forecast
Issued by NWS Knoxville/Tri Cities, TN

Home | Current Version | Previous Version | Text Only | Print | Product List | Glossary On
Versions: 1 2 3 4 5 6 7 8 9 10 11 12 13 14 15 16
000
FTUS44 KMRX 292320
TAFCHA
TAF
KCHA 292320Z 3000/3024 20009G18KT P6SM VCTS SCT030CB BKN050
     FM300100 00000KT P6SM SCT050 BKN100
     FM300800 00000KT P6SM SCT020 OVC035
     FM301400 24005KT P6SM SCT050 BKN150
     FM302100 26005KT P6SM VCTS BKN050CB=

USA.gov is the U.S. government's official web portal to all federal, state and local government web resources and services.